createdAt,value
2022-10-16T00:01:07.308Z,0.60
2022-10-16T00:03:35.622Z,0.73
2022-10-16T00:06:04.143Z,0.70
2022-10-16T00:08:32.454Z,1.10
2022-10-16T00:11:04.870Z,0.82
2022-10-16T00:13:35.388Z,0.70
2022-10-16T00:16:04.431Z,1.23
2022-10-16T00:18:32.984Z,0.90
2022-10-16T00:21:05.538Z,0.50
2022-10-16T00:23:33.959Z,0.70
2022-10-16T00:26:03.662Z,0.90
2022-10-16T00:28:32.434Z,0.68
2022-10-16T00:31:05.335Z,1.10
2022-10-16T00:33:33.347Z,0.90
2022-10-16T00:36:01.817Z,0.82
2022-10-16T00:38:30.005Z,1.27
2022-10-16T00:40:58.345Z,1.10
2022-10-16T00:43:39.123Z,0.88
2022-10-16T00:46:16.909Z,0.80
2022-10-16T00:48:51.622Z,0.73
2022-10-16T00:51:23.855Z,0.60
2022-10-16T00:53:52.465Z,0.80
2022-10-16T00:56:20.570Z,0.65
2022-10-16T00:58:48.672Z,1.05
2022-10-16T01:01:18.096Z,0.90
2022-10-16T01:03:46.259Z,1.13
2022-10-16T01:09:09.196Z,0.77
2022-10-16T01:11:44.180Z,0.80
2022-10-16T01:14:19.777Z,0.70
2022-10-16T01:16:55.159Z,1.00
2022-10-16T01:19:38.667Z,0.52
2022-10-16T01:22:09.380Z,0.77
2022-10-16T01:24:41.559Z,0.60
2022-10-16T01:27:16.792Z,0.77
2022-10-16T01:29:54.323Z,1.30
2022-10-16T01:32:33.479Z,1.00
2022-10-16T01:35:05.650Z,0.73
2022-10-16T01:37:39.695Z,0.98
2022-10-16T01:40:11.930Z,0.77
2022-10-16T01:42:44.901Z,0.80
2022-10-16T01:45:19.069Z,0.85
2022-10-16T01:47:48.920Z,0.80
2022-10-16T01:50:20.222Z,0.70
2022-10-16T01:52:51.808Z,0.90
2022-10-16T01:55:23.124Z,0.82
2022-10-16T01:57:54.962Z,0.98
2022-10-16T02:00:24.748Z,0.88
2022-10-16T02:02:56.255Z,1.00
2022-10-16T02:05:29.097Z,0.90
2022-10-16T02:07:58.554Z,0.70
2022-10-16T02:10:32.398Z,0.57
2022-10-16T02:13:08.832Z,0.60
2022-10-16T02:15:36.980Z,0.70
2022-10-16T02:18:05.753Z,0.65
2022-10-16T02:20:42.455Z,0.70
2022-10-16T02:23:17.072Z,0.68
2022-10-16T02:25:47.664Z,0.88
2022-10-16T02:28:20.809Z,0.73
2022-10-16T02:30:54.419Z,0.90
2022-10-16T02:33:25.714Z,0.80
2022-10-16T02:35:54.889Z,0.93
2022-10-16T02:38:24.092Z,0.70
2022-10-16T02:40:52.447Z,0.98
2022-10-16T02:43:22.306Z,0.80
2022-10-16T02:45:50.302Z,1.17
2022-10-16T02:48:18.240Z,0.80
2022-10-16T02:50:46.212Z,0.60
2022-10-16T02:53:14.148Z,0.63
2022-10-16T02:55:42.155Z,1.13
2022-10-16T02:58:10.149Z,0.98
2022-10-16T03:00:39.576Z,0.70
2022-10-16T03:03:07.703Z,0.82
2022-10-16T03:05:35.620Z,0.80
2022-10-16T03:08:03.585Z,0.68
2022-10-16T03:10:31.586Z,0.70
2022-10-16T03:13:00.110Z,0.80
2022-10-16T03:15:29.217Z,0.60
2022-10-16T03:17:59.993Z,0.80
2022-10-16T03:20:28.306Z,0.98
2022-10-16T03:22:56.244Z,0.57
2022-10-16T03:25:24.240Z,0.88
2022-10-16T03:27:52.177Z,0.80
2022-10-16T03:30:20.080Z,0.50
2022-10-16T03:32:48.003Z,0.50
2022-10-16T03:35:17.346Z,0.70
2022-10-16T03:37:45.255Z,0.68
2022-10-16T03:40:13.654Z,0.70
2022-10-16T03:42:41.653Z,0.60
2022-10-16T03:45:10.390Z,0.90
2022-10-16T03:47:38.359Z,0.68
2022-10-16T03:50:07.365Z,1.00
2022-10-16T03:52:36.641Z,0.77
2022-10-16T03:55:04.855Z,0.80
2022-10-16T03:57:32.763Z,0.80
2022-10-16T04:00:00.757Z,0.80
2022-10-16T04:02:28.803Z,0.90
2022-10-16T04:04:56.740Z,0.68
2022-10-16T04:07:25.000Z,0.70
2022-10-16T04:09:54.509Z,0.80
2022-10-16T04:12:22.500Z,0.70
2022-10-16T04:14:50.456Z,0.82
2022-10-16T04:17:18.442Z,0.70
2022-10-16T04:19:46.363Z,0.82
2022-10-16T04:22:14.527Z,0.98
2022-10-16T04:24:42.518Z,0.50
2022-10-16T04:27:11.968Z,0.98
2022-10-16T04:29:39.897Z,0.90
2022-10-16T04:32:09.780Z,0.70
2022-10-16T04:34:39.140Z,0.77
2022-10-16T04:37:07.445Z,0.80
2022-10-16T04:39:35.560Z,0.60
2022-10-16T04:42:03.712Z,0.65
2022-10-16T04:44:33.426Z,0.80
2022-10-16T04:47:01.432Z,0.80
2022-10-16T04:49:29.351Z,0.55
2022-10-16T04:51:57.359Z,0.75
2022-10-16T04:54:25.624Z,0.85
2022-10-16T04:56:53.659Z,0.70
2022-10-16T04:59:22.291Z,0.82
2022-10-16T05:01:52.153Z,0.90
2022-10-16T05:04:20.098Z,0.63
2022-10-16T05:06:48.054Z,0.82
2022-10-16T05:09:15.977Z,0.80
2022-10-16T05:11:43.913Z,0.63
2022-10-16T05:16:44.718Z,0.50
2022-10-16T05:19:29.435Z,0.50
2022-10-16T05:21:57.623Z,0.68
2022-10-16T05:24:25.635Z,1.10
2022-10-16T05:26:53.677Z,0.68
2022-10-16T05:29:21.707Z,0.80
2022-10-16T05:31:52.885Z,0.77
2022-10-16T05:34:22.656Z,0.73
2022-10-16T05:36:51.092Z,0.63
2022-10-16T05:39:19.029Z,0.60
2022-10-16T05:41:51.621Z,0.60
2022-10-16T05:44:19.699Z,0.82
2022-10-16T05:46:49.935Z,0.80
2022-10-16T05:49:18.590Z,0.55
2022-10-16T05:51:50.360Z,0.80
2022-10-16T05:54:18.505Z,0.88
2022-10-16T05:56:46.886Z,1.27
2022-10-16T05:59:15.119Z,0.70
2022-10-16T06:01:46.257Z,1.02
2022-10-16T06:04:14.403Z,0.75
2022-10-16T06:06:42.583Z,0.57
2022-10-16T06:09:12.785Z,1.17
2022-10-16T06:11:40.730Z,0.70
2022-10-16T06:14:10.146Z,0.55
2022-10-16T06:16:39.445Z,0.65
2022-10-16T06:19:09.197Z,0.98
2022-10-16T06:21:37.162Z,0.82
2022-10-16T06:24:05.749Z,1.05
2022-10-16T06:26:35.064Z,0.68
2022-10-16T06:29:03.427Z,0.63
2022-10-16T06:31:34.587Z,0.60
2022-10-16T06:34:03.103Z,0.60
2022-10-16T06:36:31.143Z,0.80
2022-10-16T06:38:59.085Z,0.65
2022-10-16T06:41:26.976Z,0.60
2022-10-16T06:43:56.265Z,0.60
2022-10-16T06:46:26.033Z,0.68
2022-10-16T06:48:54.778Z,0.80
2022-10-16T06:51:24.374Z,0.60
2022-10-16T06:54:09.948Z,0.60
2022-10-16T06:56:38.624Z,0.60
2022-10-16T06:59:07.942Z,0.50
2022-10-16T07:01:35.915Z,0.60
2022-10-16T07:04:04.385Z,0.70
2022-10-16T07:06:34.694Z,0.70
2022-10-16T07:09:06.566Z,0.80
2022-10-16T07:11:35.420Z,0.68
2022-10-16T07:14:03.419Z,0.70
2022-10-16T07:16:34.608Z,0.80
2022-10-16T07:19:04.818Z,0.90
2022-10-16T07:21:36.702Z,0.73
2022-10-16T07:24:06.918Z,0.88
2022-10-16T07:26:37.175Z,0.70
2022-10-16T07:29:05.538Z,0.90
2022-10-16T07:31:35.299Z,0.77
2022-10-16T07:34:03.281Z,0.93
2022-10-16T07:36:31.229Z,0.80
2022-10-16T07:39:00.327Z,0.80
2022-10-16T07:41:29.032Z,1.30
2022-10-16T07:43:58.351Z,0.70
2022-10-16T07:46:26.410Z,0.70
2022-10-16T07:48:55.872Z,1.23
2022-10-16T07:51:25.945Z,0.75
2022-10-16T07:53:54.578Z,0.77
2022-10-16T07:56:23.311Z,0.93
2022-10-16T07:58:52.532Z,0.77
2022-10-16T08:01:21.480Z,0.70
2022-10-16T08:03:51.326Z,0.90
2022-10-16T08:06:26.695Z,0.82
2022-10-16T08:08:56.596Z,0.70
2022-10-16T08:11:25.541Z,0.68
2022-10-16T08:13:53.663Z,0.60
2022-10-16T08:16:21.689Z,0.65
2022-10-16T08:18:49.638Z,0.60
2022-10-16T08:21:21.772Z,0.60
2022-10-16T08:23:54.576Z,0.88
2022-10-16T08:26:26.941Z,0.65
2022-10-16T08:28:55.534Z,0.60
2022-10-16T08:31:24.125Z,0.90
2022-10-16T08:33:53.269Z,0.60
2022-10-16T08:36:22.913Z,0.60
2022-10-16T08:38:52.162Z,0.60
2022-10-16T08:41:45.404Z,0.60
2022-10-16T08:44:32.523Z,0.60
2022-10-16T08:47:10.500Z,0.70
2022-10-16T08:49:39.999Z,0.70
2022-10-16T08:52:15.112Z,0.63
2022-10-16T08:54:47.613Z,0.80
2022-10-16T08:57:21.473Z,0.52
2022-10-16T08:59:52.168Z,0.85
2022-10-16T09:02:29.324Z,0.70
2022-10-16T09:05:26.264Z,0.88
2022-10-16T09:08:13.219Z,0.70
2022-10-16T09:10:52.082Z,0.63
2022-10-16T09:13:26.595Z,0.68
2022-10-16T09:16:06.592Z,0.50
2022-10-16T09:18:43.101Z,0.60
2022-10-16T09:21:17.967Z,0.60
2022-10-16T09:23:47.830Z,0.73
2022-10-16T09:26:17.653Z,0.65
2022-10-16T09:28:46.320Z,0.57
2022-10-16T09:31:22.636Z,0.80
2022-10-16T09:33:54.811Z,0.73
2022-10-16T09:36:25.364Z,0.63
2022-10-16T09:39:05.065Z,0.70
2022-10-16T09:41:36.245Z,0.75
2022-10-16T09:44:05.648Z,0.70
2022-10-16T09:46:35.621Z,0.80
2022-10-16T09:49:05.827Z,0.70
2022-10-16T09:51:36.357Z,0.80
2022-10-16T09:54:17.212Z,0.63
2022-10-16T09:56:46.719Z,0.80
2022-10-16T09:59:16.503Z,0.63
2022-10-16T10:01:47.834Z,0.85
2022-10-16T10:04:16.819Z,0.55
2022-10-16T10:06:47.209Z,0.77
2022-10-16T10:09:23.441Z,0.75
2022-10-16T10:11:54.453Z,0.50
2022-10-16T10:14:29.051Z,0.93
2022-10-16T10:17:15.854Z,0.57
2022-10-16T10:19:49.331Z,0.50
2022-10-16T10:22:29.978Z,0.70
2022-10-16T10:25:09.799Z,0.60
2022-10-16T10:27:45.936Z,0.80
2022-10-16T10:30:21.850Z,0.65
2022-10-16T10:32:58.271Z,0.68
2022-10-16T10:35:36.254Z,1.00
2022-10-16T10:38:18.246Z,0.70
2022-10-16T10:40:58.317Z,0.90
2022-10-16T10:43:42.447Z,0.82
2022-10-16T10:46:18.323Z,0.88
2022-10-16T10:49:00.516Z,0.90
2022-10-16T10:51:34.004Z,0.80
2022-10-16T10:54:15.685Z,0.90
2022-10-16T10:56:57.547Z,0.80
2022-10-16T10:59:40.588Z,1.05
2022-10-16T11:02:17.778Z,0.82
2022-10-16T11:05:10.223Z,1.05
2022-10-16T11:07:45.751Z,1.08
2022-10-16T11:10:17.732Z,0.98
2022-10-16T11:12:51.991Z,0.90
2022-10-16T11:15:23.354Z,1.10
2022-10-16T11:17:57.825Z,1.02
2022-10-16T11:20:28.817Z,1.10
2022-10-16T11:23:02.141Z,0.85
2022-10-16T11:25:32.356Z,0.80
2022-10-16T11:28:09.595Z,1.05
2022-10-16T11:30:46.387Z,1.20
2022-10-16T11:33:32.450Z,1.17
2022-10-16T11:36:09.590Z,0.90
2022-10-16T11:38:45.615Z,1.08
2022-10-16T11:41:21.156Z,1.13
2022-10-16T11:43:59.121Z,0.98
2022-10-16T11:46:29.792Z,1.00
2022-10-16T11:49:05.583Z,0.95
2022-10-16T11:51:37.783Z,0.85
2022-10-16T11:54:17.030Z,0.90
2022-10-16T11:56:47.973Z,0.80
2022-10-16T11:59:26.050Z,1.20
2022-10-16T12:01:59.273Z,1.00
2022-10-16T12:04:34.981Z,1.00
2022-10-16T12:07:08.051Z,0.85
2022-10-16T12:09:39.742Z,0.80
2022-10-16T12:12:29.104Z,0.80
2022-10-16T12:15:26.005Z,1.05
2022-10-16T12:18:03.678Z,1.00
2022-10-16T12:20:33.625Z,1.17
2022-10-16T12:23:03.758Z,0.80
2022-10-16T12:25:34.643Z,0.80
2022-10-16T12:28:06.106Z,1.00
2022-10-16T12:30:38.210Z,1.00
2022-10-16T12:33:08.112Z,0.95
2022-10-16T12:35:45.444Z,0.90
2022-10-16T12:38:22.061Z,0.93
2022-10-16T12:41:00.015Z,1.00
2022-10-16T12:43:36.913Z,1.00
2022-10-16T12:46:22.524Z,1.30
2022-10-16T12:49:08.333Z,1.10
2022-10-16T12:51:38.364Z,1.20
2022-10-16T12:54:14.195Z,1.30
2022-10-16T12:56:51.660Z,1.00
2022-10-16T12:59:31.570Z,1.00
2022-10-16T13:02:33.976Z,1.35
2022-10-16T13:05:15.314Z,1.35
2022-10-16T13:07:56.047Z,1.10
2022-10-16T13:10:29.547Z,1.10
2022-10-16T13:13:26.958Z,1.02
2022-10-16T13:16:05.988Z,1.10
2022-10-16T13:18:44.336Z,1.15
2022-10-16T13:21:23.816Z,1.02
2022-10-16T13:24:01.257Z,1.10
2022-10-16T13:26:37.996Z,1.40
2022-10-16T13:29:06.609Z,1.40
2022-10-16T13:31:35.465Z,1.45
2022-10-16T13:34:05.544Z,1.02
2022-10-16T13:36:38.023Z,1.27
2022-10-16T13:39:14.859Z,1.15
2022-10-16T13:41:43.472Z,7.35
2022-10-16T13:44:18.099Z,1.40
2022-10-16T13:46:46.062Z,1.33
2022-10-16T13:49:17.757Z,1.40
2022-10-16T13:51:57.217Z,1.80
2022-10-16T13:54:25.662Z,1.38
2022-10-16T13:57:03.196Z,1.25
2022-10-16T13:59:39.900Z,1.42
2022-10-16T14:02:17.028Z,1.42
2022-10-16T14:04:46.991Z,1.67
2022-10-16T14:07:21.736Z,1.20
2022-10-16T14:09:52.109Z,1.25
2022-10-16T14:12:22.910Z,1.50
2022-10-16T14:14:55.948Z,1.50
2022-10-16T14:17:26.953Z,1.38
2022-10-16T14:20:02.424Z,1.40
2022-10-16T14:22:35.338Z,1.55
2022-10-16T14:25:03.715Z,1.30
2022-10-16T14:27:34.718Z,1.60
2022-10-16T14:30:22.262Z,1.58
2022-10-16T14:32:58.849Z,1.38
2022-10-16T14:35:31.343Z,1.30
2022-10-16T14:38:01.570Z,1.65
2022-10-16T14:40:31.946Z,1.55
2022-10-16T14:43:00.682Z,1.55
2022-10-16T14:45:32.149Z,1.67
2022-10-16T14:48:03.351Z,2.70
2022-10-16T14:50:32.740Z,1.60
2022-10-16T14:53:01.277Z,1.35
2022-10-16T14:55:29.294Z,1.63
2022-10-16T14:57:59.837Z,1.42
2022-10-16T15:00:29.428Z,1.60
2022-10-16T15:02:57.435Z,1.50
2022-10-16T15:05:27.407Z,1.25
2022-10-16T15:07:57.592Z,1.80
2022-10-16T15:10:29.150Z,1.58
2022-10-16T15:12:57.238Z,1.58
2022-10-16T15:15:36.974Z,1.45
2022-10-16T15:18:05.159Z,1.45
2022-10-16T15:20:35.367Z,1.67
2022-10-16T15:23:08.098Z,1.30
2022-10-16T15:25:40.711Z,1.50
2022-10-16T15:28:08.989Z,1.58
2022-10-16T15:30:38.061Z,1.80
2022-10-16T15:33:07.572Z,1.63
2022-10-16T15:35:35.469Z,1.60
2022-10-16T15:38:04.800Z,1.92
2022-10-16T15:40:33.096Z,1.55
2022-10-16T15:43:01.015Z,2.00
2022-10-16T15:45:28.903Z,2.03
2022-10-16T15:47:56.873Z,1.58
2022-10-16T15:50:24.943Z,2.05
2022-10-16T15:52:53.254Z,1.60
2022-10-16T15:55:22.574Z,2.10
2022-10-16T15:57:50.501Z,1.60
2022-10-16T16:00:21.787Z,1.80
2022-10-16T16:02:53.649Z,1.60
2022-10-16T16:05:22.242Z,1.70
2022-10-16T16:07:50.948Z,1.63
2022-10-16T16:10:20.548Z,1.60
2022-10-16T16:12:53.650Z,1.73
2022-10-16T16:15:22.693Z,1.83
2022-10-16T16:17:51.416Z,1.50
2022-10-16T16:20:19.344Z,1.92
2022-10-16T16:22:47.260Z,1.60
2022-10-16T16:25:15.254Z,2.55
2022-10-16T16:27:43.305Z,1.42
2022-10-16T16:30:18.286Z,2.05
2022-10-16T16:32:47.840Z,1.65
2022-10-16T16:35:16.050Z,1.45
2022-10-16T16:37:44.041Z,1.58
2022-10-16T16:40:12.259Z,1.98
2022-10-16T16:42:40.180Z,1.70
2022-10-16T16:45:09.507Z,1.85
2022-10-16T16:47:39.448Z,1.75
2022-10-16T16:50:08.104Z,1.85
2022-10-16T16:52:36.383Z,1.80
2022-10-16T16:55:05.071Z,1.35
2022-10-16T16:57:32.983Z,1.70
2022-10-16T17:00:00.944Z,1.80
2022-10-16T17:02:28.942Z,1.70
2022-10-16T17:04:58.773Z,1.98
2022-10-16T17:07:28.639Z,2.10
2022-10-16T17:09:56.862Z,8.07
2022-10-16T17:12:24.943Z,2.83
2022-10-16T17:14:53.081Z,2.10
2022-10-16T17:17:20.994Z,2.20
2022-10-16T17:19:51.772Z,2.83
2022-10-16T17:22:21.801Z,2.67
2022-10-16T17:24:52.253Z,2.33
2022-10-16T17:27:20.310Z,2.20
2022-10-16T17:29:52.565Z,2.08
2022-10-16T17:32:21.937Z,2.08
2022-10-16T17:34:49.842Z,2.22
2022-10-16T17:37:18.292Z,2.55
2022-10-16T17:39:48.024Z,2.15
2022-10-16T17:42:15.965Z,1.90
2022-10-16T17:44:44.039Z,2.10
2022-10-16T17:47:12.052Z,2.60
2022-10-16T17:49:39.954Z,2.25
2022-10-16T17:52:07.890Z,2.38
2022-10-16T17:54:35.836Z,2.70
2022-10-16T17:57:05.416Z,2.80
2022-10-16T17:59:33.403Z,2.38
2022-10-16T18:02:01.400Z,2.33
2022-10-16T18:04:29.439Z,2.33
2022-10-16T18:06:57.404Z,2.45
2022-10-16T18:09:25.322Z,2.30
2022-10-16T18:11:59.870Z,2.67
2022-10-16T18:14:31.096Z,2.70
2022-10-16T18:16:59.953Z,2.47
2022-10-16T18:19:28.303Z,3.13
2022-10-16T18:21:56.641Z,2.40
2022-10-16T18:24:25.823Z,2.42
2022-10-16T18:26:56.870Z,2.20
2022-10-16T18:29:25.875Z,2.40
2022-10-16T18:31:55.328Z,2.85
2022-10-16T18:34:23.273Z,2.63
2022-10-16T18:36:54.266Z,2.50
2022-10-16T18:39:24.758Z,2.47
2022-10-16T18:41:59.483Z,2.33
2022-10-16T18:44:27.709Z,2.65
2022-10-16T18:46:57.281Z,2.47
2022-10-16T18:49:27.405Z,2.47
2022-10-16T18:51:56.800Z,2.08
2022-10-16T18:54:25.749Z,2.80
2022-10-16T18:56:54.156Z,2.67
2022-10-16T18:59:22.312Z,2.45
2022-10-16T19:01:51.173Z,2.30
2022-10-16T19:04:22.879Z,2.22
2022-10-16T19:06:54.065Z,2.30
2022-10-16T19:09:25.581Z,2.60
2022-10-16T19:11:53.808Z,2.30
2022-10-16T19:14:21.840Z,2.70
2022-10-16T19:16:49.948Z,2.30
2022-10-16T19:19:20.614Z,2.60
2022-10-16T19:21:55.810Z,2.45
2022-10-16T19:24:23.720Z,2.50
2022-10-16T19:26:51.643Z,2.10
2022-10-16T19:29:20.491Z,2.83
2022-10-16T19:31:48.457Z,2.22
2022-10-16T19:34:16.394Z,2.50
2022-10-16T19:36:45.755Z,2.10
2022-10-16T19:39:17.265Z,2.30
2022-10-16T19:41:45.388Z,2.40
2022-10-16T19:44:15.529Z,2.13
2022-10-16T19:46:44.132Z,2.25
2022-10-16T19:49:14.403Z,2.60
2022-10-16T19:51:42.377Z,2.13
2022-10-16T19:54:14.277Z,2.38
2022-10-16T19:56:43.663Z,2.17
2022-10-16T19:59:16.240Z,2.33
2022-10-16T20:01:44.285Z,2.15
2022-10-16T20:04:12.960Z,2.30
2022-10-16T20:06:41.117Z,2.05
2022-10-16T20:09:09.252Z,2.00
2022-10-16T20:11:39.131Z,2.42
2022-10-16T20:14:07.875Z,2.38
2022-10-16T20:16:35.910Z,1.90
2022-10-16T20:19:04.744Z,2.03
2022-10-16T20:21:34.722Z,2.03
2022-10-16T20:24:04.378Z,2.22
2022-10-16T20:26:32.422Z,2.08
2022-10-16T20:29:02.273Z,2.28
2022-10-16T20:31:31.929Z,1.95
2022-10-16T20:34:04.590Z,2.17
2022-10-16T20:36:33.900Z,1.90
2022-10-16T20:39:02.695Z,1.90
2022-10-16T20:41:31.244Z,1.70
2022-10-16T20:44:01.585Z,2.05
2022-10-16T20:46:30.277Z,2.50
2022-10-16T20:49:06.192Z,2.30
2022-10-16T20:51:39.682Z,1.88
2022-10-16T20:54:08.497Z,2.00
2022-10-16T20:56:37.673Z,2.20
2022-10-16T20:59:07.848Z,2.50
2022-10-16T21:01:37.104Z,1.80
2022-10-16T21:04:07.883Z,1.95
2022-10-16T21:06:39.336Z,2.10
2022-10-16T21:09:08.077Z,2.10
2022-10-16T21:11:37.403Z,2.08
2022-10-16T21:14:08.746Z,2.65
2022-10-16T21:16:36.793Z,2.40
2022-10-16T21:19:05.993Z,1.88
2022-10-16T21:21:36.407Z,2.47
2022-10-16T21:24:04.589Z,1.98
2022-10-16T21:26:32.961Z,2.05
2022-10-16T21:29:03.910Z,2.05
2022-10-16T21:31:34.366Z,2.47
2022-10-16T21:34:03.146Z,2.40
2022-10-16T21:36:32.975Z,2.05
2022-10-16T21:39:03.299Z,2.00
2022-10-16T21:41:31.945Z,2.00
2022-10-16T21:44:01.537Z,1.80
2022-10-16T21:46:32.208Z,1.85
2022-10-16T21:49:05.002Z,1.52
2022-10-16T21:51:34.784Z,1.80
2022-10-16T21:54:02.797Z,2.00
2022-10-16T21:56:31.103Z,1.95
2022-10-16T21:58:59.417Z,2.03
2022-10-16T22:01:28.960Z,1.98
2022-10-16T22:03:56.934Z,1.98
2022-10-16T22:06:28.063Z,2.08
2022-10-16T22:08:59.468Z,2.42
2022-10-16T22:11:31.336Z,2.20
2022-10-16T22:13:59.292Z,2.00
2022-10-16T22:16:28.133Z,1.90
2022-10-16T22:18:57.880Z,1.85
2022-10-16T22:21:28.529Z,2.17
2022-10-16T22:23:56.760Z,2.20
2022-10-16T22:26:24.638Z,1.60
2022-10-16T22:28:52.990Z,2.17
2022-10-16T22:31:21.713Z,1.83
2022-10-16T22:33:49.626Z,2.10
2022-10-16T22:36:17.576Z,1.80
2022-10-16T22:38:46.925Z,1.88
2022-10-16T22:41:15.988Z,1.83
2022-10-16T22:43:45.754Z,2.20
2022-10-16T22:46:15.365Z,1.95
2022-10-16T22:48:43.862Z,1.88
2022-10-16T22:51:16.674Z,2.05
2022-10-16T22:53:47.697Z,1.77
2022-10-16T22:56:16.714Z,2.10
2022-10-16T22:58:45.179Z,2.10
2022-10-16T23:01:15.375Z,2.00
2022-10-16T23:03:43.331Z,2.38
2022-10-16T23:06:11.427Z,2.53
2022-10-16T23:08:39.463Z,1.88
2022-10-16T23:11:11.114Z,2.00
2022-10-16T23:13:39.372Z,2.03
2022-10-16T23:16:08.702Z,1.70
2022-10-16T23:18:36.758Z,2.13
2022-10-16T23:21:06.698Z,1.70
2022-10-16T23:23:35.895Z,2.22
2022-10-16T23:26:03.961Z,1.80
2022-10-16T23:28:33.329Z,1.70
2022-10-16T23:31:01.293Z,1.98
2022-10-16T23:33:29.257Z,1.83
2022-10-16T23:35:57.169Z,1.90
2022-10-16T23:38:25.083Z,2.25
2022-10-16T23:40:52.995Z,1.70
2022-10-16T23:43:20.917Z,2.38
2022-10-16T23:45:50.322Z,1.77
2022-10-16T23:48:18.240Z,1.70
2022-10-16T23:50:46.198Z,2.25
2022-10-16T23:53:15.067Z,2.08
2022-10-16T23:55:43.331Z,1.35
2022-10-16T23:58:11.306Z,2.20
